sensor_id;sensor_type;location;lat;lon;timestamp;temperature;humidity
57829;DHT22;43657;52.698;6.314;2023-07-09T00:02:23;19.00;99.90
57829;DHT22;43657;52.698;6.314;2023-07-09T00:04:52;19.00;99.90
57829;DHT22;43657;52.698;6.314;2023-07-09T00:07:32;18.90;99.90
57829;DHT22;43657;52.698;6.314;2023-07-09T00:09:59;18.90;99.90
57829;DHT22;43657;52.698;6.314;2023-07-09T00:12:26;18.90;99.90
57829;DHT22;43657;52.698;6.314;2023-07-09T00:14:52;18.80;99.90
57829;DHT22;43657;52.698;6.314;2023-07-09T00:17:32;18.80;99.90
57829;DHT22;43657;52.698;6.314;2023-07-09T00:19:59;18.80;99.90
57829;DHT22;43657;52.698;6.314;2023-07-09T00:22:30;18.70;99.90
57829;DHT22;43657;52.698;6.314;2023-07-09T00:24:59;18.70;99.90
57829;DHT22;43657;52.698;6.314;2023-07-09T00:27:28;18.70;99.90
57829;DHT22;43657;52.698;6.314;2023-07-09T00:29:56;18.70;99.90
57829;DHT22;43657;52.698;6.314;2023-07-09T00:32:22;18.60;99.90
57829;DHT22;43657;52.698;6.314;2023-07-09T00:34:51;18.60;99.90
57829;DHT22;43657;52.698;6.314;2023-07-09T00:37:21;18.50;99.90
57829;DHT22;43657;52.698;6.314;2023-07-09T00:39:58;18.50;99.90
57829;DHT22;43657;52.698;6.314;2023-07-09T00:42:27;18.50;99.90
57829;DHT22;43657;52.698;6.314;2023-07-09T00:44:59;18.40;99.90
57829;DHT22;43657;52.698;6.314;2023-07-09T00:47:54;18.40;99.90
57829;DHT22;43657;52.698;6.314;2023-07-09T00:50:52;18.40;99.90
57829;DHT22;43657;52.698;6.314;2023-07-09T00:53:37;18.30;99.90
57829;DHT22;43657;52.698;6.314;2023-07-09T00:56:18;18.30;99.90
57829;DHT22;43657;52.698;6.314;2023-07-09T00:58:53;18.20;99.90
57829;DHT22;43657;52.698;6.314;2023-07-09T01:01:22;18.20;99.90
57829;DHT22;43657;52.698;6.314;2023-07-09T01:03:58;18.20;99.90
57829;DHT22;43657;52.698;6.314;2023-07-09T01:06:36;18.20;99.90
57829;DHT22;43657;52.698;6.314;2023-07-09T01:09:09;18.10;99.90
57829;DHT22;43657;52.698;6.314;2023-07-09T01:11:39;18.10;99.90
57829;DHT22;43657;52.698;6.314;2023-07-09T01:14:10;17.90;99.90
57829;DHT22;43657;52.698;6.314;2023-07-09T01:16:55;17.90;99.90
57829;DHT22;43657;52.698;6.314;2023-07-09T01:19:38;17.90;99.90
57829;DHT22;43657;52.698;6.314;2023-07-09T01:22:25;17.90;99.90
57829;DHT22;43657;52.698;6.314;2023-07-09T01:25:06;17.90;99.90
57829;DHT22;43657;52.698;6.314;2023-07-09T01:27:51;17.80;99.90
57829;DHT22;43657;52.698;6.314;2023-07-09T01:30:22;17.80;99.90
57829;DHT22;43657;52.698;6.314;2023-07-09T01:33:15;17.70;99.90
57829;DHT22;43657;52.698;6.314;2023-07-09T01:35:46;17.70;99.90
57829;DHT22;43657;52.698;6.314;2023-07-09T01:38:20;17.60;99.90
57829;DHT22;43657;52.698;6.314;2023-07-09T01:40:51;17.60;99.90
57829;DHT22;43657;52.698;6.314;2023-07-09T01:43:19;17.60;99.90
57829;DHT22;43657;52.698;6.314;2023-07-09T01:45:57;17.60;99.90
57829;DHT22;43657;52.698;6.314;2023-07-09T01:48:29;17.50;99.90
57829;DHT22;43657;52.698;6.314;2023-07-09T01:51:13;17.50;99.90
57829;DHT22;43657;52.698;6.314;2023-07-09T01:53:51;17.50;99.90
57829;DHT22;43657;52.698;6.314;2023-07-09T01:59:23;17.40;99.90
57829;DHT22;43657;52.698;6.314;2023-07-09T02:05:15;17.30;99.90
57829;DHT22;43657;52.698;6.314;2023-07-09T02:07:50;17.30;99.90
57829;DHT22;43657;52.698;6.314;2023-07-09T02:10:24;17.20;99.90
57829;DHT22;43657;52.698;6.314;2023-07-09T02:13:02;17.20;99.90
57829;DHT22;43657;52.698;6.314;2023-07-09T02:15:57;17.20;99.90
57829;DHT22;43657;52.698;6.314;2023-07-09T02:18:56;17.20;99.90
57829;DHT22;43657;52.698;6.314;2023-07-09T02:21:39;17.10;99.90
57829;DHT22;43657;52.698;6.314;2023-07-09T02:24:08;17.10;99.90
57829;DHT22;43657;52.698;6.314;2023-07-09T02:26:43;17.10;99.90
57829;DHT22;43657;52.698;6.314;2023-07-09T02:29:33;17.10;99.90
57829;DHT22;43657;52.698;6.314;2023-07-09T02:32:13;17.10;99.90
57829;DHT22;43657;52.698;6.314;2023-07-09T02:34:50;17.00;99.90
57829;DHT22;43657;52.698;6.314;2023-07-09T02:37:38;16.90;99.90
57829;DHT22;43657;52.698;6.314;2023-07-09T02:40:13;17.00;99.90
57829;DHT22;43657;52.698;6.314;2023-07-09T02:42:43;16.90;99.90
57829;DHT22;43657;52.698;6.314;2023-07-09T02:48:16;16.90;99.90
57829;DHT22;43657;52.698;6.314;2023-07-09T02:51:12;16.90;99.90
57829;DHT22;43657;52.698;6.314;2023-07-09T02:53:43;17.00;99.90
57829;DHT22;43657;52.698;6.314;2023-07-09T02:56:47;16.90;99.90
57829;DHT22;43657;52.698;6.314;2023-07-09T02:59:18;16.90;99.90
57829;DHT22;43657;52.698;6.314;2023-07-09T03:02:00;16.90;99.90
57829;DHT22;43657;52.698;6.314;2023-07-09T03:07:32;16.90;99.90
57829;DHT22;43657;52.698;6.314;2023-07-09T03:10:07;16.90;99.90
57829;DHT22;43657;52.698;6.314;2023-07-09T03:12:36;16.80;99.90
57829;DHT22;43657;52.698;6.314;2023-07-09T03:15:22;16.80;99.90
57829;DHT22;43657;52.698;6.314;2023-07-09T03:17:54;16.80;99.90
57829;DHT22;43657;52.698;6.314;2023-07-09T03:20:22;16.80;99.90
57829;DHT22;43657;52.698;6.314;2023-07-09T03:22:54;16.90;99.90
57829;DHT22;43657;52.698;6.314;2023-07-09T03:25:33;16.90;99.90
57829;DHT22;43657;52.698;6.314;2023-07-09T03:28:23;16.90;99.90
57829;DHT22;43657;52.698;6.314;2023-07-09T03:31:20;16.90;99.90
57829;DHT22;43657;52.698;6.314;2023-07-09T03:33:59;16.90;99.90
57829;DHT22;43657;52.698;6.314;2023-07-09T03:36:45;17.00;99.90
57829;DHT22;43657;52.698;6.314;2023-07-09T03:39:19;17.10;99.90
57829;DHT22;43657;52.698;6.314;2023-07-09T03:42:00;17.10;99.90
57829;DHT22;43657;52.698;6.314;2023-07-09T03:44:28;17.10;99.90
57829;DHT22;43657;52.698;6.314;2023-07-09T03:47:30;17.10;99.90
57829;DHT22;43657;52.698;6.314;2023-07-09T03:50:16;17.10;99.90
57829;DHT22;43657;52.698;6.314;2023-07-09T03:52:56;17.30;99.90
57829;DHT22;43657;52.698;6.314;2023-07-09T03:55:37;17.30;99.90
57829;DHT22;43657;52.698;6.314;2023-07-09T03:58:25;17.30;99.90
57829;DHT22;43657;52.698;6.314;2023-07-09T04:01:06;17.50;99.90
57829;DHT22;43657;52.698;6.314;2023-07-09T04:03:42;17.50;99.90
57829;DHT22;43657;52.698;6.314;2023-07-09T04:06:19;17.50;99.90
57829;DHT22;43657;52.698;6.314;2023-07-09T04:08:48;17.60;99.90
57829;DHT22;43657;52.698;6.314;2023-07-09T04:11:19;17.60;99.90
57829;DHT22;43657;52.698;6.314;2023-07-09T04:13:57;17.70;99.90
57829;DHT22;43657;52.698;6.314;2023-07-09T04:16:38;17.80;99.90
57829;DHT22;43657;52.698;6.314;2023-07-09T04:19:36;17.80;99.90
57829;DHT22;43657;52.698;6.314;2023-07-09T04:22:26;17.90;99.90
57829;DHT22;43657;52.698;6.314;2023-07-09T04:24:58;18.00;99.90
57829;DHT22;43657;52.698;6.314;2023-07-09T04:27:40;18.10;99.90
57829;DHT22;43657;52.698;6.314;2023-07-09T04:30:29;18.20;99.90
57829;DHT22;43657;52.698;6.314;2023-07-09T04:32:57;18.30;99.90
57829;DHT22;43657;52.698;6.314;2023-07-09T04:35:35;18.40;99.90
57829;DHT22;43657;52.698;6.314;2023-07-09T04:38:06;18.50;99.90
57829;DHT22;43657;52.698;6.314;2023-07-09T04:40:41;18.70;99.90
57829;DHT22;43657;52.698;6.314;2023-07-09T04:43:16;19.00;99.90
57829;DHT22;43657;52.698;6.314;2023-07-09T04:45:50;19.20;99.90
57829;DHT22;43657;52.698;6.314;2023-07-09T04:48:29;19.50;99.90
57829;DHT22;43657;52.698;6.314;2023-07-09T04:51:04;19.80;99.90
57829;DHT22;43657;52.698;6.314;2023-07-09T04:53:33;20.10;99.90
57829;DHT22;43657;52.698;6.314;2023-07-09T04:56:14;20.50;99.90
57829;DHT22;43657;52.698;6.314;2023-07-09T04:58:43;20.90;99.90
57829;DHT22;43657;52.698;6.314;2023-07-09T05:01:20;21.30;99.90
57829;DHT22;43657;52.698;6.314;2023-07-09T05:04:06;21.60;99.90
57829;DHT22;43657;52.698;6.314;2023-07-09T05:06:47;21.60;99.90
57829;DHT22;43657;52.698;6.314;2023-07-09T05:09:16;21.70;99.90
57829;DHT22;43657;52.698;6.314;2023-07-09T05:11:44;21.70;99.90
57829;DHT22;43657;52.698;6.314;2023-07-09T05:14:19;21.70;99.90
57829;DHT22;43657;52.698;6.314;2023-07-09T05:16:58;21.70;99.90
57829;DHT22;43657;52.698;6.314;2023-07-09T05:19:39;21.80;99.90
57829;DHT22;43657;52.698;6.314;2023-07-09T05:22:18;21.70;99.90
57829;DHT22;43657;52.698;6.314;2023-07-09T05:24:58;21.70;99.90
57829;DHT22;43657;52.698;6.314;2023-07-09T05:27:31;21.50;99.90
57829;DHT22;43657;52.698;6.314;2023-07-09T05:29:57;21.30;99.90
57829;DHT22;43657;52.698;6.314;2023-07-09T05:32:50;21.20;99.90
57829;DHT22;43657;52.698;6.314;2023-07-09T05:35:32;21.20;99.90
57829;DHT22;43657;52.698;6.314;2023-07-09T05:38:13;21.20;99.90
57829;DHT22;43657;52.698;6.314;2023-07-09T05:40:47;21.10;99.90
57829;DHT22;43657;52.698;6.314;2023-07-09T05:43:19;21.10;99.90
57829;DHT22;43657;52.698;6.314;2023-07-09T05:45:52;21.10;99.90
57829;DHT22;43657;52.698;6.314;2023-07-09T05:48:41;21.10;99.90
57829;DHT22;43657;52.698;6.314;2023-07-09T05:51:28;21.40;99.90
57829;DHT22;43657;52.698;6.314;2023-07-09T05:57:03;21.90;99.90
57829;DHT22;43657;52.698;6.314;2023-07-09T05:59:57;22.10;99.90
57829;DHT22;43657;52.698;6.314;2023-07-09T06:02:49;22.30;99.90
57829;DHT22;43657;52.698;6.314;2023-07-09T06:05:28;22.40;99.90
57829;DHT22;43657;52.698;6.314;2023-07-09T06:08:06;22.50;99.90
57829;DHT22;43657;52.698;6.314;2023-07-09T06:10:50;22.40;99.90
57829;DHT22;43657;52.698;6.314;2023-07-09T06:13:24;22.50;99.90
57829;DHT22;43657;52.698;6.314;2023-07-09T06:15:53;22.50;99.90
57829;DHT22;43657;52.698;6.314;2023-07-09T06:18:28;22.60;99.90
57829;DHT22;43657;52.698;6.314;2023-07-09T06:21:09;22.60;99.90
57829;DHT22;43657;52.698;6.314;2023-07-09T06:23:46;22.60;99.90
57829;DHT22;43657;52.698;6.314;2023-07-09T06:26:22;22.60;99.90
57829;DHT22;43657;52.698;6.314;2023-07-09T06:29:06;22.60;99.90
57829;DHT22;43657;52.698;6.314;2023-07-09T06:31:37;22.60;99.90
57829;DHT22;43657;52.698;6.314;2023-07-09T06:34:11;22.80;99.90
57829;DHT22;43657;52.698;6.314;2023-07-09T06:37:04;22.80;99.90
57829;DHT22;43657;52.698;6.314;2023-07-09T06:40:16;22.80;99.90
57829;DHT22;43657;52.698;6.314;2023-07-09T06:43:14;23.00;99.90
57829;DHT22;43657;52.698;6.314;2023-07-09T06:50:10;23.20;99.90
57829;DHT22;43657;52.698;6.314;2023-07-09T06:53:47;23.30;99.90
57829;DHT22;43657;52.698;6.314;2023-07-09T07:07:02;23.90;99.90
57829;DHT22;43657;52.698;6.314;2023-07-09T07:17:27;24.40;99.90
57829;DHT22;43657;52.698;6.314;2023-07-09T07:24:15;24.60;99.90
57829;DHT22;43657;52.698;6.314;2023-07-09T07:27:14;24.70;99.90
57829;DHT22;43657;52.698;6.314;2023-07-09T07:30:38;24.90;99.90
57829;DHT22;43657;52.698;6.314;2023-07-09T07:33:55;25.00;99.90
57829;DHT22;43657;52.698;6.314;2023-07-09T07:36:28;25.20;99.90
57829;DHT22;43657;52.698;6.314;2023-07-09T07:39:00;25.40;99.90
57829;DHT22;43657;52.698;6.314;2023-07-09T07:42:10;25.60;99.90
57829;DHT22;43657;52.698;6.314;2023-07-09T07:44:49;25.80;99.90
57829;DHT22;43657;52.698;6.314;2023-07-09T07:47:14;25.90;99.90
57829;DHT22;43657;52.698;6.314;2023-07-09T07:49:40;26.10;99.90
57829;DHT22;43657;52.698;6.314;2023-07-09T07:52:06;26.30;99.90
57829;DHT22;43657;52.698;6.314;2023-07-09T07:54:32;26.50;99.90
57829;DHT22;43657;52.698;6.314;2023-07-09T07:56:58;26.90;99.90
57829;DHT22;43657;52.698;6.314;2023-07-09T07:59:24;27.40;99.90
57829;DHT22;43657;52.698;6.314;2023-07-09T08:01:50;27.80;99.90
57829;DHT22;43657;52.698;6.314;2023-07-09T08:04:16;28.20;99.90
57829;DHT22;43657;52.698;6.314;2023-07-09T08:06:41;28.60;99.90
57829;DHT22;43657;52.698;6.314;2023-07-09T08:09:07;28.90;99.90
57829;DHT22;43657;52.698;6.314;2023-07-09T08:11:33;29.20;99.90
57829;DHT22;43657;52.698;6.314;2023-07-09T08:13:59;29.50;99.90
57829;DHT22;43657;52.698;6.314;2023-07-09T08:16:24;29.90;99.90
57829;DHT22;43657;52.698;6.314;2023-07-09T08:18:50;30.10;99.90
57829;DHT22;43657;52.698;6.314;2023-07-09T08:21:17;30.50;99.90
57829;DHT22;43657;52.698;6.314;2023-07-09T08:23:44;30.80;99.90
57829;DHT22;43657;52.698;6.314;2023-07-09T08:26:09;31.30;99.90
57829;DHT22;43657;52.698;6.314;2023-07-09T08:28:35;31.50;99.00
57829;DHT22;43657;52.698;6.314;2023-07-09T08:31:01;31.80;97.80
57829;DHT22;43657;52.698;6.314;2023-07-09T08:33:26;32.20;95.60
57829;DHT22;43657;52.698;6.314;2023-07-09T08:35:53;32.60;98.50
57829;DHT22;43657;52.698;6.314;2023-07-09T08:38:19;32.80;83.40
57829;DHT22;43657;52.698;6.314;2023-07-09T08:40:54;32.90;77.10
57829;DHT22;43657;52.698;6.314;2023-07-09T08:43:35;33.10;74.80
57829;DHT22;43657;52.698;6.314;2023-07-09T08:46:19;33.30;71.80
57829;DHT22;43657;52.698;6.314;2023-07-09T08:48:47;33.50;71.70
57829;DHT22;43657;52.698;6.314;2023-07-09T08:53:56;33.90;67.20
57829;DHT22;43657;52.698;6.314;2023-07-09T08:56:23;34.00;69.50
57829;DHT22;43657;52.698;6.314;2023-07-09T08:58:51;34.20;70.50
57829;DHT22;43657;52.698;6.314;2023-07-09T09:01:28;34.50;71.00
57829;DHT22;43657;52.698;6.314;2023-07-09T09:03:59;34.80;67.80
57829;DHT22;43657;52.698;6.314;2023-07-09T09:06:28;34.90;68.70
57829;DHT22;43657;52.698;6.314;2023-07-09T09:11:48;35.10;64.90
57829;DHT22;43657;52.698;6.314;2023-07-09T09:14:37;35.30;62.60
57829;DHT22;43657;52.698;6.314;2023-07-09T09:17:11;35.40;64.20
57829;DHT22;43657;52.698;6.314;2023-07-09T09:19:56;35.50;64.20
57829;DHT22;43657;52.698;6.314;2023-07-09T09:22:25;35.60;64.00
57829;DHT22;43657;52.698;6.314;2023-07-09T09:25:23;35.80;63.10
57829;DHT22;43657;52.698;6.314;2023-07-09T09:27:45;36.00;61.10
57829;DHT22;43657;52.698;6.314;2023-07-09T09:30:14;36.10;63.60
57829;DHT22;43657;52.698;6.314;2023-07-09T09:32:46;36.20;62.30
57829;DHT22;43657;52.698;6.314;2023-07-09T09:35:17;36.30;60.10
57829;DHT22;43657;52.698;6.314;2023-07-09T09:37:51;36.40;59.80
57829;DHT22;43657;52.698;6.314;2023-07-09T09:40:17;36.50;62.20
57829;DHT22;43657;52.698;6.314;2023-07-09T09:42:43;36.50;59.10
57829;DHT22;43657;52.698;6.314;2023-07-09T09:45:15;36.50;61.70
57829;DHT22;43657;52.698;6.314;2023-07-09T09:47:42;36.50;57.30
57829;DHT22;43657;52.698;6.314;2023-07-09T09:50:13;36.40;57.40
57829;DHT22;43657;52.698;6.314;2023-07-09T09:52:39;36.10;59.90
57829;DHT22;43657;52.698;6.314;2023-07-09T09:55:12;36.10;60.40
57829;DHT22;43657;52.698;6.314;2023-07-09T09:57:38;36.20;61.50
57829;DHT22;43657;52.698;6.314;2023-07-09T10:00:04;36.40;61.60
57829;DHT22;43657;52.698;6.314;2023-07-09T10:02:38;36.60;60.50
57829;DHT22;43657;52.698;6.314;2023-07-09T10:05:11;36.80;60.30
57829;DHT22;43657;52.698;6.314;2023-07-09T10:07:53;36.90;61.10
57829;DHT22;43657;52.698;6.314;2023-07-09T10:10:23;36.90;61.60
57829;DHT22;43657;52.698;6.314;2023-07-09T10:13:02;37.10;60.00
57829;DHT22;43657;52.698;6.314;2023-07-09T10:16:09;37.30;60.40
57829;DHT22;43657;52.698;6.314;2023-07-09T10:21:14;37.40;58.50
57829;DHT22;43657;52.698;6.314;2023-07-09T10:26:56;37.40;56.10
57829;DHT22;43657;52.698;6.314;2023-07-09T10:37:51;37.30;58.30
57829;DHT22;43657;52.698;6.314;2023-07-09T10:43:06;37.80;53.40
57829;DHT22;43657;52.698;6.314;2023-07-09T10:45:42;37.60;53.60
57829;DHT22;43657;52.698;6.314;2023-07-09T10:48:18;37.40;52.80
57829;DHT22;43657;52.698;6.314;2023-07-09T10:50:52;37.10;53.60
57829;DHT22;43657;52.698;6.314;2023-07-09T10:53:33;37.10;52.80
57829;DHT22;43657;52.698;6.314;2023-07-09T10:56:14;37.00;51.00
57829;DHT22;43657;52.698;6.314;2023-07-09T10:59:27;36.80;51.80
57829;DHT22;43657;52.698;6.314;2023-07-09T11:02:28;36.70;51.70
57829;DHT22;43657;52.698;6.314;2023-07-09T11:05:05;36.40;53.50
57829;DHT22;43657;52.698;6.314;2023-07-09T11:07:52;36.40;55.10
57829;DHT22;43657;52.698;6.314;2023-07-09T11:10:41;36.50;54.60
57829;DHT22;43657;52.698;6.314;2023-07-09T11:13:15;36.80;55.00
57829;DHT22;43657;52.698;6.314;2023-07-09T11:15:44;37.00;54.80
57829;DHT22;43657;52.698;6.314;2023-07-09T11:18:16;37.20;53.80
57829;DHT22;43657;52.698;6.314;2023-07-09T11:20:45;37.30;54.40
57829;DHT22;43657;52.698;6.314;2023-07-09T11:23:22;37.50;53.80
57829;DHT22;43657;52.698;6.314;2023-07-09T11:26:01;37.80;55.40
57829;DHT22;43657;52.698;6.314;2023-07-09T11:28:34;38.10;52.60
57829;DHT22;43657;52.698;6.314;2023-07-09T11:31:16;38.20;54.10
57829;DHT22;43657;52.698;6.314;2023-07-09T11:33:59;38.30;53.60
57829;DHT22;43657;52.698;6.314;2023-07-09T11:36:29;38.60;54.30
57829;DHT22;43657;52.698;6.314;2023-07-09T11:38:55;38.60;51.90
57829;DHT22;43657;52.698;6.314;2023-07-09T11:41:43;38.70;50.80
57829;DHT22;43657;52.698;6.314;2023-07-09T11:44:25;38.70;50.00
57829;DHT22;43657;52.698;6.314;2023-07-09T11:47:29;38.60;52.90
57829;DHT22;43657;52.698;6.314;2023-07-09T11:52:47;38.60;54.00
57829;DHT22;43657;52.698;6.314;2023-07-09T11:58:04;38.70;49.40
57829;DHT22;43657;52.698;6.314;2023-07-09T12:00:41;38.60;48.30
57829;DHT22;43657;52.698;6.314;2023-07-09T12:03:11;38.10;50.10
57829;DHT22;43657;52.698;6.314;2023-07-09T12:05:41;37.90;49.60
57829;DHT22;43657;52.698;6.314;2023-07-09T12:08:15;37.70;49.50
57829;DHT22;43657;52.698;6.314;2023-07-09T12:10:41;37.70;49.90
57829;DHT22;43657;52.698;6.314;2023-07-09T12:13:10;37.60;54.30
57829;DHT22;43657;52.698;6.314;2023-07-09T12:15:39;37.90;53.00
57829;DHT22;43657;52.698;6.314;2023-07-09T12:18:15;38.10;50.50
57829;DHT22;43657;52.698;6.314;2023-07-09T12:20:45;38.20;51.10
57829;DHT22;43657;52.698;6.314;2023-07-09T12:23:27;38.40;54.40
57829;DHT22;43657;52.698;6.314;2023-07-09T12:25:53;38.80;51.60
57829;DHT22;43657;52.698;6.314;2023-07-09T12:28:20;38.90;52.40
57829;DHT22;43657;52.698;6.314;2023-07-09T12:30:48;39.10;51.40
57829;DHT22;43657;52.698;6.314;2023-07-09T12:33:17;39.10;49.90
57829;DHT22;43657;52.698;6.314;2023-07-09T12:35:43;39.20;50.10
57829;DHT22;43657;52.698;6.314;2023-07-09T12:38:19;39.10;52.40
57829;DHT22;43657;52.698;6.314;2023-07-09T12:40:47;39.10;50.40
57829;DHT22;43657;52.698;6.314;2023-07-09T12:43:13;39.00;50.50
57829;DHT22;43657;52.698;6.314;2023-07-09T12:45:39;39.00;50.90
57829;DHT22;43657;52.698;6.314;2023-07-09T12:48:05;39.10;46.40
57829;DHT22;43657;52.698;6.314;2023-07-09T12:50:33;38.40;46.90
57829;DHT22;43657;52.698;6.314;2023-07-09T12:53:11;37.30;50.70
57829;DHT22;43657;52.698;6.314;2023-07-09T12:55:40;36.50;53.20
57829;DHT22;43657;52.698;6.314;2023-07-09T12:58:10;35.90;55.00
57829;DHT22;43657;52.698;6.314;2023-07-09T13:00:37;35.50;53.80
57829;DHT22;43657;52.698;6.314;2023-07-09T13:03:02;35.10;54.10
57829;DHT22;43657;52.698;6.314;2023-07-09T13:05:28;34.70;54.20
57829;DHT22;43657;52.698;6.314;2023-07-09T13:08:03;34.30;56.00
57829;DHT22;43657;52.698;6.314;2023-07-09T13:10:31;33.90;57.20
57829;DHT22;43657;52.698;6.314;2023-07-09T13:13:05;33.60;59.30
57829;DHT22;43657;52.698;6.314;2023-07-09T13:15:41;33.20;60.60
57829;DHT22;43657;52.698;6.314;2023-07-09T13:18:12;32.80;61.60
57829;DHT22;43657;52.698;6.314;2023-07-09T13:20:39;32.60;62.80
57829;DHT22;43657;52.698;6.314;2023-07-09T13:23:11;32.30;62.90
57829;DHT22;43657;52.698;6.314;2023-07-09T13:25:39;32.00;63.00
57829;DHT22;43657;52.698;6.314;2023-07-09T13:28:04;31.80;65.10
57829;DHT22;43657;52.698;6.314;2023-07-09T13:30:30;31.60;66.80
57829;DHT22;43657;52.698;6.314;2023-07-09T13:32:57;31.40;69.80
57829;DHT22;43657;52.698;6.314;2023-07-09T13:35:22;31.40;76.40
57829;DHT22;43657;52.698;6.314;2023-07-09T13:37:48;31.30;88.00
57829;DHT22;43657;52.698;6.314;2023-07-09T13:40:17;31.30;92.00
57829;DHT22;43657;52.698;6.314;2023-07-09T13:42:43;31.30;98.70
57829;DHT22;43657;52.698;6.314;2023-07-09T14:19:59;30.50;99.90
57829;DHT22;43657;52.698;6.314;2023-07-09T14:54:55;26.00;99.90
57829;DHT22;43657;52.698;6.314;2023-07-09T14:57:56;25.30;99.90
57829;DHT22;43657;52.698;6.314;2023-07-09T15:00:47;24.90;99.90
57829;DHT22;43657;52.698;6.314;2023-07-09T15:03:18;24.60;99.90
57829;DHT22;43657;52.698;6.314;2023-07-09T15:05:44;24.40;99.90
57829;DHT22;43657;52.698;6.314;2023-07-09T15:08:13;24.20;99.90
57829;DHT22;43657;52.698;6.314;2023-07-09T15:10:39;24.00;99.90
57829;DHT22;43657;52.698;6.314;2023-07-09T15:13:05;23.90;99.90
57829;DHT22;43657;52.698;6.314;2023-07-09T15:15:33;23.80;99.90
57829;DHT22;43657;52.698;6.314;2023-07-09T15:18:07;23.60;99.90
57829;DHT22;43657;52.698;6.314;2023-07-09T15:20:34;23.50;99.90
57829;DHT22;43657;52.698;6.314;2023-07-09T15:22:59;23.40;99.90
57829;DHT22;43657;52.698;6.314;2023-07-09T15:25:27;23.40;99.90
57829;DHT22;43657;52.698;6.314;2023-07-09T15:27:53;23.20;99.90
57829;DHT22;43657;52.698;6.314;2023-07-09T15:30:24;23.00;99.90
57829;DHT22;43657;52.698;6.314;2023-07-09T15:32:51;22.80;99.90
57829;DHT22;43657;52.698;6.314;2023-07-09T15:35:18;22.60;99.90
57829;DHT22;43657;52.698;6.314;2023-07-09T15:37:45;22.50;99.90
57829;DHT22;43657;52.698;6.314;2023-07-09T15:40:18;22.30;99.90
57829;DHT22;43657;52.698;6.314;2023-07-09T15:42:48;22.10;99.90
57829;DHT22;43657;52.698;6.314;2023-07-09T15:45:16;22.00;99.90
57829;DHT22;43657;52.698;6.314;2023-07-09T15:47:42;21.80;99.90
57829;DHT22;43657;52.698;6.314;2023-07-09T15:52:47;21.60;99.90
57829;DHT22;43657;52.698;6.314;2023-07-09T15:55:19;21.50;99.90
57829;DHT22;43657;52.698;6.314;2023-07-09T15:57:46;21.30;99.90
57829;DHT22;43657;52.698;6.314;2023-07-09T16:00:16;21.20;99.90
57829;DHT22;43657;52.698;6.314;2023-07-09T16:02:43;21.10;99.90
57829;DHT22;43657;52.698;6.314;2023-07-09T16:05:29;21.10;99.90
57829;DHT22;43657;52.698;6.314;2023-07-09T16:07:58;21.00;99.90
57829;DHT22;43657;52.698;6.314;2023-07-09T16:10:26;21.00;99.90
57829;DHT22;43657;52.698;6.314;2023-07-09T16:12:53;20.90;99.90
57829;DHT22;43657;52.698;6.314;2023-07-09T16:15:21;20.90;99.90
57829;DHT22;43657;52.698;6.314;2023-07-09T16:17:48;20.90;99.90
57829;DHT22;43657;52.698;6.314;2023-07-09T16:20:17;20.90;99.90
57829;DHT22;43657;52.698;6.314;2023-07-09T16:22:44;20.90;99.90
57829;DHT22;43657;52.698;6.314;2023-07-09T16:25:20;20.90;99.90
57829;DHT22;43657;52.698;6.314;2023-07-09T16:27:47;20.90;99.90
57829;DHT22;43657;52.698;6.314;2023-07-09T16:30:15;20.70;99.90
57829;DHT22;43657;52.698;6.314;2023-07-09T16:32:42;20.70;99.90
57829;DHT22;43657;52.698;6.314;2023-07-09T16:35:11;20.60;99.90
57829;DHT22;43657;52.698;6.314;2023-07-09T16:37:37;20.50;99.90
57829;DHT22;43657;52.698;6.314;2023-07-09T16:40:03;20.50;99.90
57829;DHT22;43657;52.698;6.314;2023-07-09T16:42:29;20.50;99.90
57829;DHT22;43657;52.698;6.314;2023-07-09T16:44:55;20.60;99.90
57829;DHT22;43657;52.698;6.314;2023-07-09T16:47:21;20.60;99.90
57829;DHT22;43657;52.698;6.314;2023-07-09T16:49:47;20.70;99.90
57829;DHT22;43657;52.698;6.314;2023-07-09T16:52:19;20.80;99.90
57829;DHT22;43657;52.698;6.314;2023-07-09T16:54:44;20.90;99.90
57829;DHT22;43657;52.698;6.314;2023-07-09T16:57:18;20.90;99.90
57829;DHT22;43657;52.698;6.314;2023-07-09T16:59:47;21.00;99.90
57829;DHT22;43657;52.698;6.314;2023-07-09T17:02:30;21.10;99.90
57829;DHT22;43657;52.698;6.314;2023-07-09T17:05:02;21.10;99.90
57829;DHT22;43657;52.698;6.314;2023-07-09T17:07:30;21.20;99.90
57829;DHT22;43657;52.698;6.314;2023-07-09T17:09:56;21.20;99.90
57829;DHT22;43657;52.698;6.314;2023-07-09T17:12:23;21.20;99.90
57829;DHT22;43657;52.698;6.314;2023-07-09T17:14:49;21.20;99.90
57829;DHT22;43657;52.698;6.314;2023-07-09T17:17:17;21.20;99.90
57829;DHT22;43657;52.698;6.314;2023-07-09T17:19:44;21.20;99.90
57829;DHT22;43657;52.698;6.314;2023-07-09T17:22:32;21.20;99.90
57829;DHT22;43657;52.698;6.314;2023-07-09T17:25:00;21.30;99.90
57829;DHT22;43657;52.698;6.314;2023-07-09T17:27:25;21.30;99.90
57829;DHT22;43657;52.698;6.314;2023-07-09T17:29:51;21.30;99.90
57829;DHT22;43657;52.698;6.314;2023-07-09T17:32:16;21.30;99.90
57829;DHT22;43657;52.698;6.314;2023-07-09T17:34:42;21.30;99.90
57829;DHT22;43657;52.698;6.314;2023-07-09T17:37:13;21.20;99.90
57829;DHT22;43657;52.698;6.314;2023-07-09T17:39:39;21.20;99.90
57829;DHT22;43657;52.698;6.314;2023-07-09T17:42:11;21.20;99.90
57829;DHT22;43657;52.698;6.314;2023-07-09T17:44:37;21.20;99.90
57829;DHT22;43657;52.698;6.314;2023-07-09T17:47:02;21.20;99.90
57829;DHT22;43657;52.698;6.314;2023-07-09T17:49:31;21.20;99.90
57829;DHT22;43657;52.698;6.314;2023-07-09T17:51:58;21.10;99.90
57829;DHT22;43657;52.698;6.314;2023-07-09T17:54:25;21.20;99.90
57829;DHT22;43657;52.698;6.314;2023-07-09T17:56:54;21.10;99.90
57829;DHT22;43657;52.698;6.314;2023-07-09T17:59:25;21.10;99.90
57829;DHT22;43657;52.698;6.314;2023-07-09T18:02:01;21.10;99.90
57829;DHT22;43657;52.698;6.314;2023-07-09T18:04:28;21.00;99.90
57829;DHT22;43657;52.698;6.314;2023-07-09T18:06:54;21.00;99.90
57829;DHT22;43657;52.698;6.314;2023-07-09T18:09:21;21.00;99.90
57829;DHT22;43657;52.698;6.314;2023-07-09T18:11:49;21.00;99.90
57829;DHT22;43657;52.698;6.314;2023-07-09T18:14:29;21.00;99.90
57829;DHT22;43657;52.698;6.314;2023-07-09T18:16:56;20.90;99.90
57829;DHT22;43657;52.698;6.314;2023-07-09T18:19:27;21.00;99.90
57829;DHT22;43657;52.698;6.314;2023-07-09T18:22:01;21.00;99.90
57829;DHT22;43657;52.698;6.314;2023-07-09T18:24:27;21.00;99.90
57829;DHT22;43657;52.698;6.314;2023-07-09T18:26:54;21.00;99.90
57829;DHT22;43657;52.698;6.314;2023-07-09T18:29:32;21.00;99.90
57829;DHT22;43657;52.698;6.314;2023-07-09T18:32:00;21.00;99.90
57829;DHT22;43657;52.698;6.314;2023-07-09T18:34:31;20.90;99.90
57829;DHT22;43657;52.698;6.314;2023-07-09T18:37:02;20.90;99.90